Terminal Aerodrome Forecast
Issued by NWS

Home | Current Version | Previous Version | Text Only | Print | Product List | Glossary On
Versions: 1 2 3 4 5 6 7 8 9 10 11 12 13 14 15 16 17 18 19 20 21 22 23 24 25
000
FTUS43 KBIS 260743 AAB
TAFDIK
TAF AMD
KDIK 260743Z 2608/2706 14004KT 6SM BR VCSH SCT020 OVC060
      TEMPO 2608/2611 -SHRA BKN006 OVC035
     FM261200 VRB03KT 6SM BR SCT015 BKN030
     FM261500 20004KT P6SM SCT025 BKN035
     FM261800 26008KT P6SM FEW035 SCT050
     FM270200 23004KT P6SM FEW250=

USA.gov is the U.S. government's official web portal to all federal, state and local government web resources and services.